Eagle River, WI

8:03 PM CST on November 21, 2017 (GMT -0600)
Eagle River Union

Weather History for KEGV - July, 2013

Change the Weather History Date:

Tuesday, July 23, 2013

  Actual Average Record
Temperature  
Mean Temperature 56 °F -  
Max Temperature 65 °F 75 °F 86 °F (2012)
Min Temperature 45 °F 50 °F 39 °F (2004)
Degree Days  
Heating Degree Days 10    
Growing Degree Days 6 (Base 50)    
Moisture  
Dew Point 45 °F    
Average Humidity 70    
Maximum Humidity 100    
Minimum Humidity 40    
Precipitation  
Precipitation 0.00 in - - ()
Sea Level Pressure  
Sea Level Pressure 29.92 in    
Wind  
Wind Speed 7 mph (NNW)    
Max Wind Speed 17 mph    
Max Gust Speed 26 mph    
Visibility 10 miles    
Events      
Averages and records for this station are not official NWS values.
T = Trace of Precipitation, MM = Missing Value Source: NWS Daily Summary

Daily Weather History Graph

Daily Weather History Graph

Search for Another Location

Airport or City:

Trip Planner

Search our weather history database for the weather conditions in past years. The results will help you decide how hot, cold, wet, or windy it might be!

Date:

Astronomy

Jul. 23, 2013 Rise Set
Actual Time 5:29 AM CDT 8:36 PM CDT
Civil Twilight 4:53 AM CDT 9:12 PM CDT
Nautical Twilight 4:07 AM CDT 9:58 PM CDT
Astronomical Twilight 3:11 AM CDT 10:54 PM CDT
Moon 8:55 PM CDT (7/23) 6:45 AM CDT (7/23)
Length of Visible Light 16h 18m
Length of Day
15h 06m
Full, 99% of the Moon is Illuminated
Jul 23
Full
Jul 29
Last Quarter
Aug 6
New
Aug 14
First Quarter
Aug 20
Full

Hourly Weather History & Observations

Time (CDT) Temp. Dew Point Humidity Pressure Visibility Wind Dir Wind Speed Gust Speed Precip Events Conditions
12:15 AM 57.7 °F 51.1 °F 78% 29.78 in 10.0 mi WNW 4.6 mph - N/A   Clear
12:35 AM 56.1 °F 50.5 °F 82% 29.78 in 10.0 mi WNW 3.5 mph - N/A   Clear
12:55 AM 54.0 °F 49.3 °F 84% 29.77 in 10.0 mi West 4.6 mph - N/A   Clear
1:15 AM 52.5 °F 51.3 °F 95% 29.78 in 10.0 mi West 3.5 mph - N/A   Clear
1:35 AM 51.8 °F 51.3 °F 98% 29.79 in 10.0 mi WSW 4.6 mph - N/A   Clear
1:55 AM 51.4 °F 49.8 °F 94% 29.79 in 10.0 mi WSW 4.6 mph - N/A   Clear
2:15 AM 49.3 °F 48.6 °F 97% 29.79 in 10.0 mi West 3.5 mph - N/A   Clear
2:35 AM 49.6 °F 49.6 °F 100% 29.79 in 10.0 mi West 5.8 mph - N/A   Clear
2:55 AM 53.8 °F 51.8 °F 93% 29.79 in 10.0 mi West 5.8 mph - N/A   Clear
3:15 AM 53.1 °F 51.4 °F 94% 29.79 in 10.0 mi WNW 5.8 mph - N/A   Clear
3:35 AM 53.2 °F 51.1 °F 92% 29.79 in 10.0 mi WNW 5.8 mph - N/A   Clear
3:55 AM 53.1 °F 51.4 °F 94% 29.79 in 10.0 mi WNW 5.8 mph - N/A   Clear
4:15 AM 53.8 °F 51.1 °F 91% 29.79 in 10.0 mi NW 6.9 mph - N/A   Clear
4:35 AM 53.8 °F 50.7 °F 89% 29.80 in 10.0 mi NW 9.2 mph - N/A   Clear
4:55 AM 52.9 °F 50.9 °F 93% 29.81 in 10.0 mi NNW 8.1 mph - N/A   Clear
5:15 AM 52.2 °F 50.7 °F 95% 29.82 in 10.0 mi NNW 4.6 mph - N/A   Scattered Clouds
5:35 AM 52.2 °F 49.6 °F 91% 29.83 in 10.0 mi North 5.8 mph - N/A   Scattered Clouds
5:55 AM 52.3 °F 47.3 °F 83% 29.84 in 10.0 mi NNW 9.2 mph - N/A   Scattered Clouds
6:15 AM 52.3 °F 45.7 °F 78% 29.84 in 10.0 mi NNW 6.9 mph - N/A   Clear
6:35 AM 52.7 °F 45.5 °F 76% 29.85 in 10.0 mi North 11.5 mph 16.1 mph N/A   Clear
6:55 AM 53.1 °F 45.1 °F 74% 29.86 in 10.0 mi North 12.7 mph 19.6 mph N/A   Clear
7:15 AM 52.9 °F 44.8 °F 74% 29.87 in 10.0 mi North 9.2 mph 18.4 mph N/A   Mostly Cloudy
7:35 AM 53.6 °F 44.8 °F 72% 29.88 in 10.0 mi North 12.7 mph 16.1 mph N/A   Overcast
7:55 AM 53.8 °F 44.6 °F 71% 29.88 in 10.0 mi North 17.3 mph 24.2 mph N/A   Overcast
8:15 AM 54.5 °F 44.2 °F 68% 29.88 in 10.0 mi North 13.8 mph 20.7 mph N/A   Overcast
8:35 AM 54.9 °F 44.1 °F 67% 29.90 in 10.0 mi North 11.5 mph 26.5 mph N/A   Overcast
8:55 AM 54.9 °F 44.4 °F 68% 29.90 in 10.0 mi North 12.7 mph 18.4 mph N/A   Overcast
9:15 AM 57.7 °F 45.3 °F 63% 29.91 in 10.0 mi North 12.7 mph 17.3 mph N/A   Overcast
9:35 AM 57.0 °F 44.2 °F 62% 29.92 in 10.0 mi North 8.1 mph 21.9 mph N/A   Overcast
9:55 AM 57.2 °F 44.2 °F 62% 29.93 in 10.0 mi North 16.1 mph 21.9 mph N/A   Overcast
10:15 AM 60.6 °F 45.5 °F 57% 29.94 in 10.0 mi North 15.0 mph 21.9 mph N/A   Overcast
10:35 AM 61.7 °F 43.2 °F 51% 29.95 in 10.0 mi NNE 16.1 mph 25.3 mph N/A   Mostly Cloudy
10:55 AM 58.5 °F 42.6 °F 56% 29.96 in 10.0 mi North 12.7 mph 23.0 mph N/A   Overcast
11:15 AM 59.5 °F 43.0 °F 54% 29.96 in 10.0 mi North 11.5 mph 23.0 mph N/A   Overcast
11:35 AM 59.7 °F 42.3 °F 52% 29.96 in 10.0 mi North 13.8 mph 23.0 mph N/A   Overcast
11:55 AM 61.2 °F 43.9 °F 53% 29.97 in 10.0 mi North 11.5 mph 23.0 mph N/A   Overcast
12:15 PM 61.0 °F 44.8 °F 55% 29.97 in 10.0 mi NNE 15.0 mph 19.6 mph N/A   Mostly Cloudy
12:35 PM 63.0 °F 43.2 °F 48% 29.97 in 10.0 mi NNE 16.1 mph 24.2 mph N/A   Mostly Cloudy
12:55 PM 61.2 °F 43.3 °F 52% 29.98 in 10.0 mi North 8.1 mph 19.6 mph N/A   Mostly Cloudy
1:55 PM 63.3 °F 43.0 °F 47% 29.99 in 10.0 mi NNW 13.8 mph 24.2 mph N/A   Mostly Cloudy
2:15 PM 63.3 °F 42.1 °F 46% 29.99 in 10.0 mi NNW 10.4 mph - N/A   Mostly Cloudy
3:15 PM 64.9 °F 40.8 °F 41% 30.00 in 10.0 mi NNW 15.0 mph 19.6 mph N/A   Scattered Clouds
3:35 PM 64.8 °F 40.3 °F 41% 30.00 in 10.0 mi North 12.7 mph 21.9 mph N/A   Scattered Clouds
3:55 PM 64.4 °F 40.6 °F 42% 30.00 in 10.0 mi North 13.8 mph 21.9 mph N/A   Clear
4:15 PM 64.6 °F 39.7 °F 40% 30.01 in 10.0 mi North 12.7 mph 21.9 mph N/A   Clear
4:35 PM 64.4 °F 40.5 °F 41% 30.00 in 10.0 mi North 12.7 mph 17.3 mph N/A   Clear
4:55 PM 65.1 °F 41.0 °F 41% 30.00 in 10.0 mi NNE 12.7 mph 18.4 mph N/A   Clear
5:15 PM 64.6 °F 39.7 °F 40% 30.00 in 10.0 mi NNE 12.7 mph - N/A   Clear
5:35 PM 64.6 °F 40.3 °F 41% 30.00 in 10.0 mi NNW 13.8 mph 19.6 mph N/A   Clear
5:55 PM 65.3 °F 41.0 °F 41% 30.00 in 10.0 mi North 11.5 mph 18.4 mph N/A   Clear
6:15 PM 64.6 °F 41.2 °F 42% 30.00 in 10.0 mi North 9.2 mph - N/A   Clear
6:35 PM 64.0 °F 41.9 °F 44% 30.00 in 10.0 mi North 5.8 mph - N/A   Clear
7:15 PM 63.0 °F 42.1 °F 46% 30.01 in 10.0 mi NNE 6.9 mph - N/A   Clear
7:35 PM 62.2 °F 43.0 °F 49% 30.01 in 10.0 mi North 5.8 mph - N/A   Clear
7:55 PM 61.2 °F 43.5 °F 52% 30.01 in 10.0 mi North 6.9 mph - N/A   Clear
8:15 PM 59.0 °F 43.7 °F 57% 30.01 in 10.0 mi North 3.5 mph - N/A   Clear
8:35 PM 57.2 °F 43.9 °F 61% 30.01 in 10.0 mi North 3.5 mph - N/A   Clear
8:55 PM 55.2 °F 45.5 °F 70% 30.02 in 10.0 mi North 3.5 mph - N/A   Clear
9:15 PM 50.9 °F 45.0 °F 80% 30.03 in 10.0 mi Calm Calm - N/A   Clear
9:55 PM 50.2 °F 45.1 °F 83% 30.03 in 10.0 mi Calm Calm - N/A   Clear
10:15 PM 48.4 °F 47.8 °F 98% 30.03 in 10.0 mi WSW 3.5 mph - N/A   Clear
10:35 PM 48.7 °F 48.0 °F 97% 30.03 in 10.0 mi Calm Calm - N/A   Clear
10:55 PM 47.5 °F 46.9 °F 98% 30.03 in 10.0 mi Calm Calm - N/A   Clear
11:15 PM 46.9 °F 46.8 °F 99% 30.03 in 10.0 mi Calm Calm - N/A   Clear
11:35 PM 46.2 °F 45.9 °F 99% 30.03 in 10.0 mi Calm Calm - N/A   Clear
11:55 PM 45.7 °F 45.7 °F 100% 30.03 in 10.0 mi Calm Calm - N/A   Clear